• Join FlightAware (Why Join?)
  • Login
  • US Flag 
04:48PM EST


 

Airport Tracker/Info


-or-


 

Live Flight TrackerFlight Track Log ✈ N892WA ✈ 02-May-2013 ✈ KPOU - KPOU

Flight Track Log - Related Links

Times and Time Zones

All times are in EDT time to prevent confusion due to time zone crossing. See the N892WA flight status page for this flight to view local times or setup timezone preferences in your user account.

Time Position Orientation Groundspeed Altitude Reporting Facility
EDT Latitude Longitude Course Direction KTS MPH feet Rate Location/Type
12:43PM 41.6000 -73.9333 197° South 139 160 2,000  Level New York TRACON
12:44PM 41.6339 -73.9511 339° North 127 146 4,200 1,620 Climbing Boston Center
12:45PM 41.6592 -73.9128 49° Northeast 110 127 5,800 1,800 Climbing Boston Center
12:46PM 41.6869 -73.8661 51° Northeast 134 154 7,900 1,800 Climbing Boston Center
12:47PM 41.7083 -73.8278 53° Northeast 141 162 9,500 1,560 Climbing Boston Center
12:48PM 41.7358 -73.7867 48° Northeast 141 162 11,100 1,260 Climbing Boston Center
12:49PM 41.6266 -73.8842 197° South  Level Estimated
12:49PM 41.7717 -73.7650 24° Northeast 135 155 12,100  Level Boston Center
12:50PM 41.8261 -73.7439 37° Northeast 177 204 12,700 840 Climbing Boston Center
12:51PM 41.8370 -73.7463 37° Northeast  Level FlightAware Approximate
12:51PM 41.8611 -73.7614 340° North 182 209 13,800  Level Boston Center
12:52PM 41.9194 -73.7736 351° North 172 198 15,100 600 Climbing Boston Center
12:53PM 41.9653 -73.7719 North 172 198 15,100  Level Boston Center
12:54PM 42.0303 -73.7536 12° North 193 222 15,100 300 Level Boston Center
12:56PM 41.9676 -73.7778 196° South  Level FlightAware Approximate
12:56PM 42.1372 -73.6944 196° South 207 238 16,100  Level Boston Center
12:57PM 42.1894 -73.6644 23° Northeast 207 238 16,700 900 Climbing Boston Center
12:58PM 42.2356 -73.6403 21° North 195 224 18,000 1,080 Climbing Boston Center
12:59PM 42.2672 -73.6211 24° Northeast 174 200 18,900 960 Climbing Boston Center
01:00PM 42.3069 -73.5883 31° Northeast 153 176 20,000 540 Climbing Boston Center
01:01PM 42.3553 -73.5667 18° North 147 169 20,000  Level Boston Center
01:02PM 42.4097 -73.5367 22° Northeast 178 205 20,000  Level Boston Center
01:03PM 42.4681 -73.5264 North 198 228 20,000  Level Boston Center
01:05PM 42.5286 -73.5136 North 210 242 20,000  Level Boston Center
01:06PM 42.6019 -73.4922 12° North 221 254 20,000  Level Boston Center
01:07PM 42.6542 -73.4733 15° North 221 254 20,000  Level Boston Center
01:08PM 42.7147 -73.4517 15° North 221 254 20,000  Level Boston Center
01:09PM 42.7753 -73.4328 13° North 221 254 20,000 -300 Level Boston Center
01:10PM 42.8361 -73.4142 13° North 221 254 19,400 -480 Descending Boston Center
01:11PM 42.9050 -73.3869 16° North 221 254 19,100 -180 Descending Boston Center
01:12PM 42.9636 -73.3622 17° North 221 254 19,100  Level Boston Center
01:13PM 43.0033 -73.3514 11° North 221 254 19,100  Level Boston Center
01:14PM 43.0675 -73.4006 331° Northwest 204 235 19,100  Level Boston Center
01:15PM 43.1275 -73.4528 328° Northwest 203 234 19,100  Level Boston Center
01:16PM 43.1833 -73.4936 332° Northwest 213 245 19,100  Level Boston Center
01:17PM 43.2331 -73.5344 329° Northwest 213 245 19,100  Level Boston Center
01:18PM 43.2847 -73.5753 330° Northwest 207 238 19,100  Level Boston Center
01:19PM 43.3386 -73.6047 338° Northwest 207 238 19,100  Level Boston Center
01:20PM 43.3928 -73.5858 14° North 191 220 19,100  Level Boston Center
01:21PM 43.4475 -73.5583 20° North 191 220 19,100 -60 Level Boston Center
01:22PM 43.5058 -73.5364 15° North 204 235 19,000 -60 Descending Boston Center
01:23PM 43.5664 -73.5375 359° North 209 241 19,000  Level Boston Center
01:24PM 43.6289 -73.5358 North 209 241 19,000  Level Boston Center
01:25PM 43.6853 -73.5339 North 214 246 19,000  Level Boston Center
01:26PM 43.7456 -73.5350 359° North 219 252 19,000  Level Boston Center
01:27PM 43.8144 -73.5364 359° North 214 246 19,000  Level Boston Center
01:28PM 43.8747 -73.5344 North 214 246 19,000  Level Boston Center
01:29PM 43.9519 -73.5331 North 219 252 19,000  Level Boston Center
01:30PM 44.0167 -73.5314 North 224 258 19,000  Level Boston Center
01:31PM 44.0811 -73.5297 North 231 266 19,000  Level Boston Center
01:32PM 44.1458 -73.5308 359° North 231 266 19,000  Level Boston Center
01:33PM 44.2125 -73.5292 North 231 266 19,000  Level Boston Center
01:34PM 44.2769 -73.5275 North 231 266 19,000  Level Boston Center
01:35PM 44.3417 -73.5286 359° North 231 266 19,000  Level Boston Center
01:36PM 44.4000 -73.5267 North 231 266 19,000  Level Boston Center
01:37PM 44.4728 -73.5281 359° North 231 266 19,000  Level Boston Center
01:38PM 44.5394 -73.5264 North 231 266 19,000 60 Level Boston Center
01:39PM 44.6022 -73.5131 North 231 266 19,200 60 Climbing Boston Center
01:40PM 44.6539 -73.5403 339° North 203 234 19,200  Level Boston Center
01:41PM 44.6075 -73.6094 227° Southwest 122 140 19,300  Climbing Boston Center
01:42PM 44.5328 -73.5933 171° South 154 177 19,300  Level Boston Center
01:43PM 44.4700 -73.5950 181° South 224 258 19,300  Level Boston Center
01:44PM 44.3742 -73.5961 180° South 279 321 19,300  Level Boston Center
01:45PM 44.3181 -73.5950 179° South 284 327 19,300  Level Boston Center
01:46PM 44.2158 -73.5958 180° South 290 334 19,300  Level Boston Center
01:47PM 44.1389 -73.6000 182° South 290 334 19,300  Level Boston Center
01:48PM 44.0597 -73.5986 179° South 290 334 19,300  Level Boston Center
01:49PM 43.9761 -73.6028 182° South 290 334 19,300  Level Boston Center
01:50PM 43.9011 -73.6011 179° South 290 334 19,300  Level Boston Center
01:51PM 43.8219 -73.6025 181° South 290 334 19,300  Level Boston Center
01:52PM 43.7450 -73.6039 181° South 290 334 19,300  Level Boston Center
01:53PM 43.6761 -73.6056 181° South 285 328 19,300  Level Boston Center
01:54PM 43.6117 -73.6044 179° South 279 321 19,300 -240 Level Boston Center
01:55PM 43.5239 -73.6142 185° South 274 315 18,900 -960 Descending Boston Center
01:56PM 43.4444 -73.6383 192° South 279 321 17,400 -1,320 Descending Boston Center
01:57PM 43.3608 -73.6594 190° South 307 353 16,300 -1,320 Descending Boston Center
01:58PM 43.2856 -73.6778 190° South 312 359 14,800 -1,080 Descending Boston Center
01:59PM 43.1978 -73.7017 191° South 304 350 14,200 -720 Descending Boston Center
02:00PM 43.1311 -73.7175 190° South 286 329 13,400 -900 Descending Boston Center
02:01PM 43.0514 -73.7472 195° South 278 320 12,500 -420 Descending Boston Center
02:02PM 42.9908 -73.7742 198° South 270 311 12,600  Climbing Boston Center
02:04PM 42.8999 -73.7667 180° South  Level FlightAware Approximate
02:04PM 42.8672 -73.8225 180° South 248 285 12,500  Level Boston Center
02:05PM 42.8000 -73.8522 198° South 248 285 12,600  Climbing Boston Center
02:06PM 42.7269 -73.8731 192° South 248 285 12,600 -60 Level Boston Center
02:07PM 42.6581 -73.8828 186° South 248 285 12,500 -60 Descending Boston Center
02:08PM 42.5872 -73.8867 182° South 248 285 12,500  Level Boston Center
02:09PM 42.5183 -73.8936 184° South 255 293 12,500  Level Boston Center
02:10PM 42.4494 -73.9003 184° South 255 293 12,500  Level Boston Center
02:11PM 42.3806 -73.9017 181° South 250 288 12,500 -600 Level Boston Center
02:12PM 42.3142 -73.8889 172° South 250 288 11,300 -1,320 Descending Boston Center
02:13PM 42.2353 -73.8617 166° South 250 288 9,600 -1,500 Descending Boston Center
02:14PM 42.1811 -73.8436 166° South 238 274 8,400 -1,260 Descending Boston Center
02:15PM 42.1169 -73.8200 165° South 225 259 7,100 -1,380 Descending Boston Center
02:17PM 42.0000 -73.7833 167° South 215 247 4,600 -1,140 Descending New York TRACON
02:18PM 41.9500 -73.7833 180° South 209 241 3,900 -540 Descending New York TRACON
02:19PM 41.9000 -73.7833 180° South 211 243 3,600 -240 Descending New York TRACON
02:20PM 41.8333 -73.8000 191° South 208 239 3,400 -420 Descending New York TRACON
02:21PM 41.7833 -73.8000 180° South 207 238 2,800 -480 Descending New York TRACON
02:22PM 41.7333 -73.7833 166° South 186 214 2,500 -540 Descending New York TRACON
02:23PM 41.6833 -73.8000 194° South 152 175 1,700 -540 Descending New York TRACON
02:24PM 41.6667 -73.8333 236° Southwest 113 130 1,400 -600 Descending New York TRACON
02:25PM 41.6333 -73.8667 217° Southwest 120 138 500 -900 Descending New York TRACON
02:27PM 41.6167 -73.8833 189° South  Level FlightAware Approximate
02:34PM 41.6266 -73.8842 189° South  Level Estimated
02:35PM 41.6266 -73.8842 189° South  Level Estimated
02:36PM 41.6266 -73.8842 189° South  Level Estimated